createdAt,value
2022-09-26T00:01:48.707Z,40.90
2022-09-26T00:04:35.974Z,43.95
2022-09-26T00:07:25.123Z,39.65
2022-09-26T00:10:12.198Z,37.17
2022-09-26T00:12:59.710Z,37.55
2022-09-26T00:15:50.331Z,38.63
2022-09-26T00:18:37.760Z,46.15
2022-09-26T00:21:26.646Z,40.42
2022-09-26T00:24:14.178Z,40.97
2022-09-26T00:27:01.221Z,47.70
2022-09-26T00:29:48.314Z,42.03
2022-09-26T00:32:35.339Z,42.00
2022-09-26T00:35:24.462Z,50.05
2022-09-26T00:38:11.484Z,45.92
2022-09-26T00:40:59.047Z,46.38
2022-09-26T00:43:50.822Z,56.78
2022-09-26T00:46:45.506Z,49.92
2022-09-26T00:49:43.907Z,54.42
2022-09-26T00:52:44.826Z,54.25
2022-09-26T00:55:36.473Z,46.80
2022-09-26T00:58:49.027Z,46.58
2022-09-26T01:01:36.329Z,49.28
2022-09-26T01:04:27.783Z,47.45
2022-09-26T01:07:19.896Z,43.35
2022-09-26T01:10:07.440Z,42.60
2022-09-26T01:12:59.025Z,48.67
2022-09-26T01:15:46.099Z,53.00
2022-09-26T01:18:33.886Z,53.35
2022-09-26T01:21:59.796Z,56.88
2022-09-26T01:25:24.115Z,52.20
2022-09-26T01:28:19.194Z,61.17
2022-09-26T01:31:15.176Z,67.55
2022-09-26T01:34:25.431Z,67.22
2022-09-26T01:37:20.907Z,57.72
2022-09-26T01:40:23.525Z,70.00
2022-09-26T01:43:23.794Z,71.55
2022-09-26T01:46:41.250Z,66.97
2022-09-26T01:49:43.227Z,58.70
2022-09-26T01:52:48.435Z,51.33
2022-09-26T01:55:42.647Z,77.28
2022-09-26T01:58:41.828Z,58.97
2022-09-26T02:01:35.452Z,64.32
2022-09-26T02:04:32.556Z,66.22
2022-09-26T02:07:31.708Z,66.18
2022-09-26T02:10:30.609Z,63.10
2022-09-26T02:13:25.450Z,59.38
2022-09-26T02:16:23.716Z,59.75
2022-09-26T02:19:20.224Z,55.80
2022-09-26T02:22:07.360Z,55.15
2022-09-26T02:24:54.426Z,68.60
2022-09-26T02:27:41.930Z,61.20
2022-09-26T02:30:29.800Z,54.15
2022-09-26T02:33:19.450Z,59.72
2022-09-26T02:36:10.193Z,61.58
2022-09-26T02:38:59.600Z,61.72
2022-09-26T02:42:24.028Z,64.97
2022-09-26T02:45:32.986Z,60.85
2022-09-26T02:48:37.847Z,50.80
2022-09-26T02:51:30.642Z,49.63
2022-09-26T02:57:29.213Z,44.35
2022-09-26T03:00:31.678Z,48.20
2022-09-26T03:03:30.627Z,51.30
2022-09-26T03:06:21.489Z,48.17
2022-09-26T03:09:13.490Z,43.97
2022-09-26T03:12:04.847Z,47.30
2022-09-26T03:14:57.954Z,40.65
2022-09-26T03:17:53.996Z,39.88
2022-09-26T03:20:41.535Z,39.83
2022-09-26T03:23:30.370Z,41.05
2022-09-26T03:26:26.484Z,47.15
2022-09-26T03:29:13.729Z,52.72
2022-09-26T03:32:03.429Z,52.85
2022-09-26T03:34:51.752Z,52.65
2022-09-26T03:37:39.510Z,55.03
2022-09-26T03:40:26.676Z,52.40
2022-09-26T03:43:16.224Z,46.58
2022-09-26T03:46:05.469Z,40.08
2022-09-26T03:48:52.539Z,38.92
2022-09-26T03:51:42.837Z,43.25
2022-09-26T03:54:32.131Z,38.97
2022-09-26T03:57:24.260Z,34.05
2022-09-26T04:00:11.992Z,30.08
2022-09-26T04:03:03.027Z,28.33
2022-09-26T04:05:55.031Z,28.02
2022-09-26T04:08:42.538Z,26.13
2022-09-26T04:11:29.602Z,26.35
2022-09-26T04:14:19.956Z,28.98
2022-09-26T04:17:09.656Z,24.08
2022-09-26T04:19:56.709Z,23.88
2022-09-26T04:22:46.383Z,25.40
2022-09-26T04:25:37.051Z,28.63
2022-09-26T04:28:24.335Z,33.40
2022-09-26T04:31:12.618Z,27.17
2022-09-26T04:34:00.377Z,24.90
2022-09-26T04:36:51.159Z,30.25
2022-09-26T04:39:38.213Z,25.02
2022-09-26T04:42:25.239Z,28.05
2022-09-26T04:45:12.283Z,24.80
2022-09-26T04:47:59.403Z,29.15
2022-09-26T04:50:46.490Z,28.42
2022-09-26T04:53:34.734Z,29.20
2022-09-26T04:56:23.418Z,24.40
2022-09-26T04:59:10.534Z,20.77
2022-09-26T05:01:57.570Z,26.77
2022-09-26T05:04:44.671Z,20.83
2022-09-26T05:07:31.905Z,32.83
2022-09-26T05:10:18.988Z,23.20
2022-09-26T05:13:07.839Z,22.20
2022-09-26T05:15:55.754Z,20.55
2022-09-26T05:18:51.048Z,21.55
2022-09-26T05:21:38.236Z,27.52
2022-09-26T05:24:46.283Z,26.73
2022-09-26T05:27:35.914Z,25.30
2022-09-26T05:30:31.238Z,22.73
2022-09-26T05:33:19.845Z,21.40
2022-09-26T05:36:15.486Z,27.60
2022-09-26T05:39:03.745Z,24.25
2022-09-26T05:41:52.915Z,23.52
2022-09-26T05:44:40.181Z,22.98
2022-09-26T05:47:33.197Z,25.63
2022-09-26T05:50:22.333Z,22.30
2022-09-26T05:53:09.897Z,19.95
2022-09-26T05:55:56.912Z,28.88
2022-09-26T05:58:44.040Z,21.90
2022-09-26T06:01:35.849Z,27.67
2022-09-26T06:04:22.998Z,24.17
2022-09-26T06:07:10.555Z,18.83
2022-09-26T06:09:57.577Z,20.25
2022-09-26T06:12:48.836Z,22.73
2022-09-26T06:15:37.831Z,24.40
2022-09-26T06:18:26.122Z,18.73
2022-09-26T06:21:15.227Z,17.58
2022-09-26T06:24:07.325Z,16.60
2022-09-26T06:26:54.573Z,10.95
2022-09-26T06:29:41.700Z,14.02
2022-09-26T06:32:29.249Z,17.13
2022-09-26T06:35:16.483Z,12.68
2022-09-26T06:38:05.858Z,10.98
2022-09-26T06:40:53.125Z,13.70
2022-09-26T06:43:40.426Z,10.50
2022-09-26T06:46:27.905Z,10.90
2022-09-26T06:49:15.064Z,11.15
2022-09-26T06:52:02.583Z,11.38
2022-09-26T06:54:49.582Z,8.23
2022-09-26T06:57:39.860Z,8.38
2022-09-26T07:00:30.049Z,12.25
2022-09-26T07:03:17.439Z,9.25
2022-09-26T07:06:07.509Z,9.10
2022-09-26T07:09:02.649Z,8.68
2022-09-26T07:12:13.620Z,12.43
2022-09-26T07:15:00.357Z,8.18
2022-09-26T07:17:48.295Z,7.75
2022-09-26T07:20:40.211Z,17.23
2022-09-26T07:23:27.224Z,13.93
2022-09-26T07:26:14.332Z,9.85
2022-09-26T07:29:01.851Z,8.15
2022-09-26T07:31:49.196Z,10.27
2022-09-26T07:34:39.213Z,9.10
2022-09-26T07:37:26.870Z,7.43
2022-09-26T07:40:18.136Z,13.60
2022-09-26T07:43:30.608Z,9.15
2022-09-26T07:46:31.821Z,6.70
2022-09-26T07:49:37.558Z,7.60
2022-09-26T07:52:26.792Z,7.88
2022-09-26T07:55:19.883Z,8.60
2022-09-26T07:58:09.213Z,8.73
2022-09-26T08:00:56.352Z,8.00
2022-09-26T08:03:50.558Z,12.02
2022-09-26T08:06:40.205Z,8.68
2022-09-26T08:09:28.323Z,7.60
2022-09-26T08:12:15.645Z,10.95
2022-09-26T08:15:07.653Z,10.38
2022-09-26T08:17:54.680Z,7.93
2022-09-26T08:20:47.017Z,8.70
2022-09-26T08:23:36.968Z,10.15
2022-09-26T08:26:24.113Z,8.60
2022-09-26T08:29:12.381Z,9.05
2022-09-26T08:32:03.356Z,7.35
2022-09-26T08:34:53.057Z,10.32
2022-09-26T08:37:40.508Z,8.85
2022-09-26T08:40:56.833Z,7.50
2022-09-26T08:44:08.022Z,7.55
2022-09-26T08:47:06.752Z,6.97
2022-09-26T08:50:17.308Z,8.40
2022-09-26T08:53:14.065Z,5.50
2022-09-26T08:56:03.791Z,6.55
2022-09-26T08:58:54.804Z,5.25
2022-09-26T09:01:44.893Z,8.73
2022-09-26T09:04:44.417Z,7.50
2022-09-26T09:07:31.807Z,7.53
2022-09-26T09:10:31.501Z,8.48
2022-09-26T09:13:24.504Z,8.63
2022-09-26T09:16:40.647Z,5.25
2022-09-26T09:19:59.566Z,6.55
2022-09-26T09:23:16.368Z,8.88
2022-09-26T09:30:17.404Z,5.10
2022-09-26T09:33:17.281Z,3.58
2022-09-26T09:36:11.909Z,6.97
2022-09-26T09:39:06.242Z,3.78
2022-09-26T09:42:03.700Z,6.78
2022-09-26T09:45:25.487Z,7.70
2022-09-26T09:48:13.318Z,5.20
2022-09-26T09:51:39.699Z,3.05
2022-09-26T09:54:30.389Z,3.97
2022-09-26T09:57:43.792Z,4.03
2022-09-26T10:00:33.682Z,5.55
2022-09-26T10:03:27.771Z,5.40
2022-09-26T10:06:45.503Z,5.32
2022-09-26T10:09:36.421Z,4.90
2022-09-26T10:12:33.063Z,5.97
2022-09-26T10:15:27.297Z,5.85
2022-09-26T10:18:25.139Z,3.65
2022-09-26T10:21:18.980Z,4.63
2022-09-26T10:24:28.673Z,2.33
2022-09-26T10:27:39.366Z,1.65
2022-09-26T10:30:31.855Z,1.90
2022-09-26T10:33:30.000Z,5.25
2022-09-26T10:36:29.390Z,4.63
2022-09-26T10:39:35.250Z,4.43
2022-09-26T10:42:23.119Z,2.00
2022-09-26T10:45:20.458Z,2.13
2022-09-26T10:48:11.607Z,4.22
2022-09-26T10:51:00.717Z,2.72
2022-09-26T10:53:52.840Z,3.90
2022-09-26T10:56:47.734Z,3.10
2022-09-26T10:59:40.033Z,4.38
2022-09-26T11:02:29.090Z,2.33
2022-09-26T11:05:39.104Z,4.72
2022-09-26T11:08:35.166Z,2.25
2022-09-26T11:11:22.732Z,4.00
2022-09-26T11:14:09.962Z,3.05
2022-09-26T11:16:57.347Z,5.95
2022-09-26T11:20:00.329Z,5.43
2022-09-26T11:26:17.854Z,3.15
2022-09-26T11:29:27.850Z,2.88
2022-09-26T11:32:41.341Z,3.00
2022-09-26T11:35:44.660Z,2.42
2022-09-26T11:38:58.652Z,1.90
2022-09-26T11:42:25.859Z,3.45
2022-09-26T11:45:39.893Z,5.90
2022-09-26T11:48:40.253Z,2.05
2022-09-26T11:51:47.053Z,2.55
2022-09-26T11:55:12.579Z,2.72
2022-09-26T11:58:40.162Z,3.72
2022-09-26T12:01:55.100Z,1.77
2022-09-26T12:05:16.934Z,3.60
2022-09-26T12:08:40.917Z,3.47
2022-09-26T12:11:43.850Z,3.70
2022-09-26T12:17:49.639Z,1.85
2022-09-26T12:20:57.908Z,1.60
2022-09-26T12:23:54.637Z,1.52
2022-09-26T12:27:00.105Z,2.63
2022-09-26T12:29:59.305Z,2.53
2022-09-26T12:32:56.679Z,2.45
2022-09-26T12:35:51.936Z,1.83
2022-09-26T12:38:56.668Z,1.73
2022-09-26T12:41:51.770Z,3.47
2022-09-26T12:44:53.595Z,1.10
2022-09-26T12:47:52.632Z,5.18
2022-09-26T12:50:44.161Z,2.78
2022-09-26T12:53:43.526Z,2.83
2022-09-26T12:56:42.480Z,2.22
2022-09-26T13:00:11.017Z,2.15
2022-09-26T13:03:13.788Z,1.67
2022-09-26T13:06:18.575Z,1.98
2022-09-26T13:09:19.597Z,1.60
2022-09-26T13:12:20.169Z,1.33
2022-09-26T13:15:12.991Z,1.50
2022-09-26T13:21:09.122Z,2.15
2022-09-26T13:24:01.105Z,1.58
2022-09-26T13:26:54.832Z,2.42
2022-09-26T13:29:46.209Z,2.72
2022-09-26T13:32:47.760Z,3.60
2022-09-26T13:35:37.685Z,1.40
2022-09-26T13:39:02.993Z,1.25
2022-09-26T13:42:14.438Z,2.70
2022-09-26T13:45:38.865Z,1.77
2022-09-26T13:49:01.093Z,1.45
2022-09-26T13:51:54.617Z,1.25
2022-09-26T13:54:44.845Z,1.92
2022-09-26T13:57:31.994Z,1.52
2022-09-26T14:00:25.290Z,2.60
2022-09-26T14:03:18.729Z,1.38
2022-09-26T14:06:26.622Z,1.98
2022-09-26T14:09:24.212Z,1.38
2022-09-26T14:12:20.389Z,3.50
2022-09-26T14:15:24.194Z,4.57
2022-09-26T14:18:23.719Z,7.57
2022-09-26T14:21:12.743Z,2.25
2022-09-26T14:24:25.924Z,4.07
2022-09-26T14:30:13.308Z,2.13
2022-09-26T14:33:05.121Z,2.03
2022-09-26T14:35:52.285Z,4.10
2022-09-26T14:38:40.572Z,2.80
2022-09-26T14:41:33.632Z,1.70
2022-09-26T14:44:22.459Z,2.80
2022-09-26T14:47:16.120Z,1.83
2022-09-26T14:50:06.732Z,2.78
2022-09-26T14:53:02.609Z,2.38
2022-09-26T14:56:14.155Z,1.60
2022-09-26T14:59:16.538Z,1.40
2022-09-26T15:02:34.359Z,1.08
2022-09-26T15:05:25.896Z,2.30
2022-09-26T15:08:29.006Z,1.77
2022-09-26T15:11:38.769Z,1.33
2022-09-26T15:14:39.865Z,0.90
2022-09-26T15:17:34.889Z,1.75
2022-09-26T15:20:26.364Z,1.00
2022-09-26T15:23:29.783Z,1.00
2022-09-26T15:26:21.948Z,1.33
2022-09-26T15:29:12.707Z,0.90
2022-09-26T15:32:00.666Z,1.27
2022-09-26T15:34:48.137Z,2.78
2022-09-26T15:37:36.538Z,2.97
2022-09-26T15:40:26.918Z,4.50
2022-09-26T15:43:20.641Z,1.85
2022-09-26T15:46:26.874Z,2.80
2022-09-26T15:49:18.313Z,3.20
2022-09-26T15:52:06.669Z,2.05
2022-09-26T15:54:54.638Z,4.63
2022-09-26T15:57:43.496Z,7.05
2022-09-26T16:00:33.940Z,4.80
2022-09-26T16:03:27.338Z,4.85
2022-09-26T16:06:37.902Z,3.25
2022-09-26T16:09:34.419Z,3.13
2022-09-26T16:12:24.085Z,5.70
2022-09-26T16:15:18.771Z,7.43
2022-09-26T16:18:06.953Z,2.30
2022-09-26T16:21:15.439Z,3.42
2022-09-26T16:24:30.214Z,2.90
2022-09-26T16:27:26.688Z,1.48
2022-09-26T16:30:37.691Z,3.03
2022-09-26T16:33:34.059Z,2.70
2022-09-26T16:36:28.258Z,8.43
2022-09-26T16:39:30.273Z,5.43
2022-09-26T16:42:17.764Z,2.40
2022-09-26T16:45:05.842Z,3.83
2022-09-26T16:47:55.939Z,2.83
2022-09-26T16:50:45.696Z,4.10
2022-09-26T16:53:35.467Z,6.68
2022-09-26T16:56:24.935Z,5.30
2022-09-26T16:59:21.998Z,3.25
2022-09-26T17:02:10.642Z,4.13
2022-09-26T17:05:00.316Z,6.18
2022-09-26T17:07:49.715Z,6.95
2022-09-26T17:10:38.014Z,5.32
2022-09-26T17:13:31.052Z,8.77
2022-09-26T17:16:18.639Z,6.75
2022-09-26T17:19:05.986Z,6.95
2022-09-26T17:21:54.128Z,4.32
2022-09-26T17:24:42.511Z,8.02
2022-09-26T17:27:36.022Z,5.07
2022-09-26T17:30:23.381Z,6.35
2022-09-26T17:33:11.068Z,6.78
2022-09-26T17:35:59.387Z,4.47
2022-09-26T17:38:47.489Z,6.35
2022-09-26T17:41:37.951Z,7.25
2022-09-26T17:44:25.406Z,6.60
2022-09-26T17:47:16.099Z,7.55
2022-09-26T17:50:05.771Z,8.52
2022-09-26T17:52:53.665Z,10.25
2022-09-26T17:55:40.805Z,12.95
2022-09-26T17:58:28.149Z,11.50
2022-09-26T18:01:33.724Z,6.07
2022-09-26T18:04:27.316Z,10.05
2022-09-26T18:07:21.496Z,9.93
2022-09-26T18:10:19.421Z,12.55
2022-09-26T18:13:13.547Z,9.65
2022-09-26T18:16:01.847Z,6.10
2022-09-26T18:18:49.887Z,10.07
2022-09-26T18:21:40.047Z,7.43
2022-09-26T18:24:29.416Z,7.20
2022-09-26T18:27:19.274Z,8.98
2022-09-26T18:30:13.715Z,4.35
2022-09-26T18:33:02.237Z,8.32
2022-09-26T18:35:53.272Z,9.20
2022-09-26T18:38:42.987Z,13.68
2022-09-26T18:41:33.190Z,5.85
2022-09-26T18:44:23.861Z,8.65
2022-09-26T18:47:16.538Z,9.82
2022-09-26T18:50:05.509Z,5.38
2022-09-26T18:52:53.098Z,3.63
2022-09-26T18:56:01.344Z,4.30
2022-09-26T18:58:48.600Z,6.20
2022-09-26T19:01:40.148Z,5.13
2022-09-26T19:04:30.563Z,5.85
2022-09-26T19:07:21.678Z,3.60
2022-09-26T19:10:19.934Z,3.40
2022-09-26T19:13:10.166Z,2.00
2022-09-26T19:15:57.618Z,4.40
2022-09-26T19:18:45.402Z,2.67
2022-09-26T19:21:41.578Z,2.33
2022-09-26T19:24:44.679Z,5.75
2022-09-26T19:27:39.739Z,4.07
2022-09-26T19:30:26.902Z,2.33
2022-09-26T19:33:14.076Z,2.33
2022-09-26T19:36:01.425Z,2.95
2022-09-26T19:38:48.865Z,2.55
2022-09-26T19:41:36.969Z,3.42
2022-09-26T19:44:24.405Z,10.77
2022-09-26T19:47:23.265Z,4.85
2022-09-26T19:50:17.258Z,3.97
2022-09-26T19:53:15.252Z,2.42
2022-09-26T19:56:05.019Z,4.28
2022-09-26T19:58:52.889Z,3.53
2022-09-26T20:01:43.482Z,2.65
2022-09-26T20:04:31.213Z,2.47
2022-09-26T20:07:22.078Z,1.85
2022-09-26T20:10:18.221Z,1.88
2022-09-26T20:13:05.362Z,1.92
2022-09-26T20:15:54.958Z,3.22
2022-09-26T20:18:42.152Z,2.45
2022-09-26T20:21:32.572Z,4.35
2022-09-26T20:24:19.891Z,3.83
2022-09-26T20:27:15.528Z,2.28
2022-09-26T20:30:25.177Z,5.82
2022-09-26T20:33:13.225Z,2.95
2022-09-26T20:36:06.709Z,2.88
2022-09-26T20:38:57.162Z,2.47
2022-09-26T20:41:45.232Z,4.28
2022-09-26T20:44:34.407Z,2.88
2022-09-26T20:47:21.667Z,1.67
2022-09-26T20:50:18.606Z,3.28
2022-09-26T20:53:14.155Z,1.98
2022-09-26T20:56:03.015Z,1.27
2022-09-26T20:58:50.414Z,3.83
2022-09-26T21:01:39.926Z,2.72
2022-09-26T21:04:32.587Z,3.33
2022-09-26T21:07:20.441Z,2.65
2022-09-26T21:10:27.703Z,2.75
2022-09-26T21:13:14.826Z,2.03
2022-09-26T21:16:04.533Z,1.98
2022-09-26T21:18:52.738Z,2.38
2022-09-26T21:21:41.068Z,3.00
2022-09-26T21:24:38.360Z,1.70
2022-09-26T21:27:26.115Z,3.08
2022-09-26T21:30:15.563Z,3.05
2022-09-26T21:33:04.979Z,3.33
2022-09-26T21:35:52.816Z,3.08
2022-09-26T21:38:42.415Z,4.13
2022-09-26T21:41:32.791Z,2.70
2022-09-26T21:44:27.993Z,7.40
2022-09-26T21:47:15.519Z,11.55
2022-09-26T21:50:09.283Z,12.38
2022-09-26T21:53:04.381Z,12.02
2022-09-26T21:55:56.267Z,15.93
2022-09-26T21:58:46.507Z,12.40
2022-09-26T22:01:33.771Z,11.93
2022-09-26T22:04:22.441Z,12.77
2022-09-26T22:07:12.168Z,10.57
2022-09-26T22:09:59.310Z,9.35
2022-09-26T22:12:48.206Z,10.13
2022-09-26T22:15:40.672Z,11.95
2022-09-26T22:18:27.727Z,8.32
2022-09-26T22:21:14.828Z,8.82
2022-09-26T22:24:04.539Z,6.30
2022-09-26T22:26:53.983Z,6.22
2022-09-26T22:29:41.074Z,6.53
2022-09-26T22:32:28.191Z,4.13
2022-09-26T22:35:15.723Z,5.53
2022-09-26T22:38:02.883Z,3.30
2022-09-26T22:41:00.093Z,3.60
2022-09-26T22:43:49.163Z,3.60
2022-09-26T22:46:36.383Z,3.67
2022-09-26T22:49:24.194Z,1.70
2022-09-26T22:52:11.263Z,2.13
2022-09-26T22:54:58.303Z,1.92
2022-09-26T22:57:48.040Z,4.50
2022-09-26T23:00:35.116Z,3.85
2022-09-26T23:03:22.130Z,2.60
2022-09-26T23:06:10.035Z,2.92
2022-09-26T23:08:57.482Z,2.13
2022-09-26T23:11:48.546Z,3.03
2022-09-26T23:14:36.112Z,4.75
2022-09-26T23:17:25.508Z,1.70
2022-09-26T23:20:12.548Z,3.25
2022-09-26T23:23:02.759Z,2.85
2022-09-26T23:25:50.417Z,3.05
2022-09-26T23:28:40.374Z,3.63
2022-09-26T23:31:28.931Z,4.60
2022-09-26T23:34:16.209Z,1.83
2022-09-26T23:37:03.351Z,2.95
2022-09-26T23:39:50.547Z,2.78
2022-09-26T23:42:42.555Z,7.05
2022-09-26T23:45:30.950Z,1.92
2022-09-26T23:48:18.085Z,3.92
2022-09-26T23:51:05.667Z,3.90
2022-09-26T23:53:55.275Z,4.20
2022-09-26T23:56:42.332Z,2.60
2022-09-26T23:59:29.390Z,5.20
